Time;durP1;ratioP1;P1;durP2;ratioP2;P2;SDS_P1;SDS_P2;PMS_P1;PMS_P2;Temp;Humidity;BMP_temperature;BMP_pressure;BME280_temperature;BME280_humidity;BME280_pressure;Samples;Min_cycle;Max_cycle;Signal;HPM_P1;HPM_P2
2023/07/19 00:00:32;;;;;;;4.68;2.40;;;;;;;21.83;53.02;101546.19;5029483;28;20025;-45
2023/07/19 00:02:57;;;;;;;5.20;2.10;;;;;;;21.83;53.21;101546.19;5029888;28;20037;-48
2023/07/19 00:05:23;;;;;;;6.50;2.30;;;;;;;21.75;54.22;101549.00;5029462;28;20038;-43
2023/07/19 00:07:48;;;;;;;5.28;2.53;;;;;;;21.68;54.95;101550.03;5029847;28;20471;-45
2023/07/19 00:10:14;;;;;;;4.00;2.30;;;;;;;21.65;55.38;101550.09;5028714;28;20523;-51
2023/07/19 00:12:39;;;;;;;8.55;2.60;;;;;;;21.71;55.08;101547.31;5029945;28;20506;-48
2023/07/19 00:15:05;;;;;;;6.15;2.47;;;;;;;21.72;55.11;101548.19;5029919;28;20491;-47
2023/07/19 00:17:30;;;;;;;4.65;2.30;;;;;;;21.77;55.04;101548.97;5029652;28;20037;-46
2023/07/19 00:19:56;;;;;;;4.68;2.40;;;;;;;21.84;55.17;101548.78;5028006;28;20083;-43
2023/07/19 00:22:21;;;;;;;4.63;2.33;;;;;;;21.90;54.68;101537.16;5030590;28;20056;-42
2023/07/19 00:24:46;;;;;;;5.53;2.40;;;;;;;22.00;54.40;101535.22;5032253;28;20037;-48
2023/07/19 00:27:11;;;;;;;5.15;2.25;;;;;;;21.98;54.51;101537.00;5031118;28;20116;-42
2023/07/19 00:29:37;;;;;;;4.53;2.20;;;;;;;22.02;53.73;101528.94;5031497;28;20029;-44
2023/07/19 00:32:02;;;;;;;4.55;2.20;;;;;;;22.04;54.09;101534.22;5031736;28;20033;-43
2023/07/19 00:34:28;;;;;;;4.72;2.38;;;;;;;22.09;54.05;101527.88;5031176;28;20511;-44
2023/07/19 00:36:53;;;;;;;3.95;2.25;;;;;;;22.13;53.91;101524.28;5031374;28;20026;-46
2023/07/19 00:39:18;;;;;;;4.80;2.13;;;;;;;22.10;53.14;101526.09;5031054;28;20037;-45
2023/07/19 00:41:43;;;;;;;4.25;2.50;;;;;;;22.18;53.02;101524.16;5030671;28;20112;-45
2023/07/19 00:44:09;;;;;;;6.13;2.20;;;;;;;22.20;52.44;101522.34;5029320;28;20411;-43
2023/07/19 00:46:34;;;;;;;5.35;2.25;;;;;;;22.14;51.99;101511.88;5029475;28;20044;-43
2023/07/19 00:49:00;;;;;;;3.50;2.13;;;;;;;22.13;52.10;101518.09;5029041;28;20041;-45
2023/07/19 00:51:26;;;;;;;4.13;2.10;;;;;;;22.26;52.13;101509.75;5029361;28;20040;-48
2023/07/19 00:53:52;;;;;;;5.35;2.40;;;;;;;22.27;52.75;101522.13;5033765;28;20124;-47
2023/07/19 00:56:19;;;;;;;4.38;2.40;;;;;;;22.24;52.67;101514.25;5033223;28;20033;-49
2023/07/19 00:58:45;;;;;;;5.05;2.30;;;;;;;22.07;54.13;101516.44;5033655;28;20017;-45
2023/07/19 01:01:10;;;;;;;6.38;2.70;;;;;;;21.89;55.59;101519.50;5032760;28;20104;-51
2023/07/19 01:03:36;;;;;;;5.82;2.88;;;;;;;21.91;54.21;101519.44;5034187;28;20033;-45
2023/07/19 01:06:03;;;;;;;5.85;2.70;;;;;;;21.98;54.72;101518.44;5033367;28;20029;-44
2023/07/19 01:08:29;;;;;;;4.22;2.30;;;;;;;21.93;55.81;101514.97;5033001;28;20049;-46
2023/07/19 01:10:55;;;;;;;5.07;2.75;;;;;;;21.90;55.93;101517.69;5032902;28;20492;-49
2023/07/19 01:13:21;;;;;;;5.05;2.80;;;;;;;21.85;56.40;101516.03;5032528;28;20034;-44
2023/07/19 01:15:46;;;;;;;4.43;2.60;;;;;;;21.93;55.43;101525.59;5034240;28;20033;-43
2023/07/19 01:18:11;;;;;;;6.90;2.72;;;;;;;21.74;55.89;101512.75;5034536;28;20120;-44
2023/07/19 01:20:37;;;;;;;4.47;2.53;;;;;;;21.84;55.97;101508.09;5034519;28;20037;-47
2023/07/19 01:23:02;;;;;;;5.15;2.60;;;;;;;21.83;56.81;101503.72;5033099;28;20561;-44
2023/07/19 01:25:27;;;;;;;4.22;2.65;;;;;;;21.79;57.23;101507.31;5034382;28;20029;-46
2023/07/19 01:27:53;;;;;;;4.57;2.35;;;;;;;21.73;56.92;101507.47;5035006;28;20122;-42
2023/07/19 01:30:19;;;;;;;6.78;2.40;;;;;;;21.66;57.31;101497.88;5033358;28;20044;-45
2023/07/19 01:32:44;;;;;;;4.82;2.63;;;;;;;21.73;57.49;101496.84;5032583;28;20427;-45
2023/07/19 01:35:10;;;;;;;6.40;2.47;;;;;;;21.73;57.97;101496.84;5032220;28;20067;-46
2023/07/19 01:37:36;;;;;;;5.50;2.55;;;;;;;21.71;58.85;101496.03;5032579;28;20037;-46
2023/07/19 01:40:03;;;;;;;4.22;2.40;;;;;;;21.72;59.25;101498.63;5032010;28;20036;-45
2023/07/19 01:42:28;;;;;;;4.03;2.30;;;;;;;21.72;59.32;101495.97;5031899;28;20107;-50
2023/07/19 01:44:54;;;;;;;4.00;2.38;;;;;;;21.73;58.84;101496.84;5032415;28;20071;-42
2023/07/19 01:47:19;;;;;;;4.13;2.50;;;;;;;21.71;59.27;101483.59;5031996;28;20347;-43
2023/07/19 01:49:45;;;;;;;4.47;2.45;;;;;;;21.79;58.39;101488.75;5031369;28;20045;-47
2023/07/19 01:52:10;;;;;;;6.60;2.70;;;;;;;21.71;58.41;101491.56;5031693;28;20084;-45
2023/07/19 01:54:35;;;;;;;5.78;2.55;;;;;;;21.66;57.79;101493.47;5032166;28;20037;-43
2023/07/19 01:57:01;;;;;;;4.18;2.58;;;;;;;21.83;57.46;101493.09;5032241;28;20029;-50
2023/07/19 01:59:26;;;;;;;3.97;2.40;;;;;;;21.88;56.54;101499.16;5031244;28;20033;-45
2023/07/19 02:01:53;;;;;;;5.68;2.20;;;;;;;21.86;56.42;101503.63;5032111;28;20132;-44
2023/07/19 02:04:18;;;;;;;4.22;2.42;;;;;;;21.86;56.34;101506.28;5031183;28;20060;-44
2023/07/19 02:06:43;;;;;;;6.03;3.40;;;;;;;21.29;58.64;101508.41;5030722;28;20037;-50
2023/07/19 02:09:09;;;;;;;8.63;3.90;;;;;;;21.61;58.15;101498.00;5031346;28;20108;-45
2023/07/19 02:11:36;;;;;;;5.43;3.00;;;;;;;21.64;58.40;101489.13;5031041;28;20380;-46
2023/07/19 02:14:02;;;;;;;6.38;3.05;;;;;;;21.66;59.24;101496.13;5031911;28;20488;-46
2023/07/19 02:16:27;;;;;;;6.57;3.33;;;;;;;21.64;60.22;101491.75;5031481;28;20083;-44
2023/07/19 02:18:52;;;;;;;7.80;3.47;;;;;;;21.52;61.79;101495.56;5031590;28;20028;-47
2023/07/19 02:21:18;;;;;;;5.05;3.10;;;;;;;21.56;60.99;101486.63;5030810;28;20068;-46
2023/07/19 02:23:43;;;;;;;6.22;3.10;;;;;;;21.54;61.69;101485.78;5031827;28;20100;-44
2023/07/19 02:26:09;;;;;;;5.90;3.20;;;;;;;21.45;62.66;101478.91;5031555;28;20481;-45
2023/07/19 02:28:34;;;;;;;6.97;3.70;;;;;;;21.24;63.75;101482.00;5031936;28;20423;-43
2023/07/19 02:31:00;;;;;;;5.28;3.63;;;;;;;20.89;65.42;101487.13;5031709;28;20033;-45
2023/07/19 02:33:25;;;;;;;5.40;3.40;;;;;;;21.11;64.69;101479.59;5031099;28;20045;-46
2023/07/19 02:35:54;;;;;;;4.70;3.17;;;;;;;21.26;64.04;101476.69;5031236;28;20026;-44
2023/07/19 02:38:21;;;;;;;4.25;3.10;;;;;;;21.25;64.14;101480.22;5030528;28;20090;-43
2023/07/19 02:40:47;;;;;;;5.82;3.10;;;;;;;21.20;64.59;101480.34;5031190;28;20117;-43
2023/07/19 02:43:12;;;;;;;5.00;3.20;;;;;;;21.27;64.40;101475.78;5030820;28;20034;-44
2023/07/19 02:45:38;;;;;;;6.43;3.70;;;;;;;21.24;65.23;101476.69;5031453;28;20025;-43
2023/07/19 02:48:03;;;;;;;5.78;3.42;;;;;;;20.97;65.60;101479.91;5031384;28;20377;-43
2023/07/19 02:50:28;;;;;;;4.68;3.30;;;;;;;21.03;65.54;101469.16;5028867;28;20516;-41
2023/07/19 02:52:54;;;;;;;5.20;3.13;;;;;;;21.18;65.53;101475.94;5029632;28;20508;-45
2023/07/19 02:55:19;;;;;;;4.13;2.90;;;;;;;21.27;65.06;101467.81;5030903;28;20472;-43
2023/07/19 02:57:45;;;;;;;5.63;3.00;;;;;;;21.29;65.43;101468.63;5030918;28;20451;-45
2023/07/19 03:00:10;;;;;;;5.25;2.90;;;;;;;21.42;64.62;101464.81;5029953;28;20061;-45
2023/07/19 03:02:36;;;;;;;4.68;2.88;;;;;;;21.44;64.75;101460.38;5031019;28;20037;-43
2023/07/19 03:05:02;;;;;;;5.32;2.92;;;;;;;21.40;65.11;101462.22;5030951;28;20037;-46
2023/07/19 03:07:27;;;;;;;4.53;2.75;;;;;;;21.14;66.10;101467.16;5030324;28;20052;-45
2023/07/19 03:09:52;;;;;;;4.43;3.00;;;;;;;21.02;66.36;101478.91;5029924;28;20049;-48
2023/07/19 03:12:18;;;;;;;7.10;3.17;;;;;;;20.99;66.70;101483.38;5030421;28;20026;-45
2023/07/19 03:14:43;;;;;;;4.25;2.75;;;;;;;21.24;65.53;101474.03;5029981;28;20026;-45
2023/07/19 03:17:09;;;;;;;5.55;2.53;;;;;;;21.27;65.27;101474.00;5030075;28;20443;-51
2023/07/19 03:19:35;;;;;;;4.00;2.70;;;;;;;21.32;65.12;101471.25;5030649;28;20057;-43
2023/07/19 03:22:01;;;;;;;5.93;2.80;;;;;;;21.29;65.58;101468.63;5031266;28;20569;-43
2023/07/19 03:24:26;;;;;;;5.07;2.65;;;;;;;21.31;65.50;101475.66;5030048;28;20112;-44
2023/07/19 03:26:52;;;;;;;3.92;2.60;;;;;;;21.28;65.76;101462.50;5030832;28;20068;-46
2023/07/19 03:29:17;;;;;;;4.32;2.70;;;;;;;21.35;65.84;101468.50;5029391;28;20045;-43
2023/07/19 03:31:42;;;;;;;5.38;2.85;;;;;;;21.23;66.50;101468.75;5030748;28;20038;-44
2023/07/19 03:34:08;;;;;;;4.57;2.65;;;;;;;21.27;66.67;101474.00;5030245;28;20121;-46
2023/07/19 03:36:33;;;;;;;5.82;2.70;;;;;;;21.25;66.69;101467.84;5030756;28;20530;-46
2023/07/19 03:38:58;;;;;;;5.95;2.88;;;;;;;21.34;66.67;101465.00;5030613;28;20057;-45
2023/07/19 03:41:24;;;;;;;4.15;2.60;;;;;;;21.32;67.23;101468.59;5029315;28;20152;-43
2023/07/19 03:43:49;;;;;;;4.70;2.40;;;;;;;21.40;66.80;101472.84;5030136;28;20037;-45
2023/07/19 03:46:14;;;;;;;5.35;2.97;;;;;;;21.13;68.28;101470.72;5029611;28;20041;-46
2023/07/19 03:48:40;;;;;;;5.22;2.42;;;;;;;21.31;67.50;101477.44;5029788;28;20072;-45
2023/07/19 03:51:06;;;;;;;4.88;2.55;;;;;;;21.35;67.55;101464.06;5029140;28;20565;-50
2023/07/19 03:53:31;;;;;;;5.07;2.50;;;;;;;21.41;67.00;101469.25;5029836;28;20037;-46
2023/07/19 03:55:58;;;;;;;3.80;2.38;;;;;;;21.40;67.54;101467.53;5029858;28;20041;-50
2023/07/19 03:58:24;;;;;;;3.60;2.40;;;;;;;21.43;67.45;101469.22;5029229;28;20037;-44
2023/07/19 04:00:57;;;;;;;3.50;2.40;;;;;;;21.44;67.52;101470.97;5029334;28;20515;-43
2023/07/19 04:03:24;;;;;;;4.82;2.63;;;;;;;21.37;67.80;101470.22;5029339;28;20056;-46
2023/07/19 04:05:50;;;;;;;4.70;2.30;;;;;;;21.44;67.96;101471.84;5029871;28;20033;-44
2023/07/19 04:08:16;;;;;;;4.53;2.30;;;;;;;21.51;67.61;101466.41;5029050;28;20090;-48
2023/07/19 04:10:43;;;;;;;4.60;2.50;;;;;;;21.54;67.61;101464.53;5029207;28;20522;-48
2023/07/19 04:13:10;;;;;;;6.63;2.83;;;;;;;21.52;67.98;101455.78;5029304;28;20033;-45
2023/07/19 04:15:35;;;;;;;4.47;2.50;;;;;;;21.49;68.10;101458.47;5029716;28;20033;-45
2023/07/19 04:18:01;;;;;;;6.13;2.58;;;;;;;21.51;68.53;101455.78;5029676;28;20056;-46
2023/07/19 04:20:26;;;;;;;4.18;2.50;;;;;;;21.67;68.13;101462.50;5028831;28;20506;-44
2023/07/19 04:22:51;;;;;;;4.95;2.63;;;;;;;21.62;68.50;101459.06;5029714;28;20684;-44
2023/07/19 04:25:18;;;;;;;4.07;2.20;;;;;;;21.70;68.19;101463.31;5028965;28;20105;-46
2023/07/19 04:27:43;;;;;;;3.40;2.40;;;;;;;21.68;68.09;101466.91;5028996;28;20048;-47
2023/07/19 04:30:09;;;;;;;4.05;2.10;;;;;;;21.72;67.90;101458.81;5028572;28;20034;-44
2023/07/19 04:32:34;;;;;;;5.20;2.60;;;;;;;21.83;67.37;101455.94;5029467;28;20491;-48
2023/07/19 04:34:59;;;;;;;3.67;2.42;;;;;;;21.77;67.83;101456.94;5029374;28;20399;-44
2023/07/19 04:37:25;;;;;;;3.92;2.50;;;;;;;21.79;68.00;101457.78;5028876;28;20515;-46
2023/07/19 04:39:50;;;;;;;4.80;2.55;;;;;;;21.77;68.17;101459.56;5029007;28;20068;-44
2023/07/19 04:42:19;;;;;;;3.65;2.22;;;;;;;21.90;68.24;101459.28;5028753;28;20671;-47
2023/07/19 04:44:46;;;;;;;9.65;2.80;;;;;;;21.66;68.50;101458.97;5029413;28;20029;-44
2023/07/19 04:47:11;;;;;;;5.78;2.50;;;;;;;21.69;68.25;101458.91;5028877;28;20488;-46
2023/07/19 04:49:37;;;;;;;7.15;2.72;;;;;;;21.55;68.18;101461.00;5028689;28;20045;-47
2023/07/19 04:52:03;;;;;;;4.63;2.60;;;;;;;21.53;68.26;101464.59;5029258;28;20029;-46
2023/07/19 04:54:28;;;;;;;3.85;2.20;;;;;;;21.78;67.75;101458.69;5027812;28;20034;-45
2023/07/19 04:56:53;;;;;;;4.03;2.38;;;;;;;21.92;67.78;101462.78;5029049;28;20033;-50
2023/07/19 04:59:19;;;;;;;4.75;2.40;;;;;;;21.84;67.16;101469.16;5028919;28;20085;-46
2023/07/19 05:01:44;;;;;;;4.32;2.70;;;;;;;21.68;67.60;101470.44;5028731;28;20068;-43
2023/07/19 05:04:10;;;;;;;5.82;2.55;;;;;;;21.41;68.43;101477.22;5028610;28;20048;-48
2023/07/19 05:06:35;;;;;;;5.85;2.70;;;;;;;21.89;67.52;101473.50;5029444;28;20037;-43
2023/07/19 05:09:00;;;;;;;4.18;2.78;;;;;;;22.27;65.88;101463.69;5028838;28;20088;-45
2023/07/19 05:11:26;;;;;;;4.78;2.85;;;;;;;22.28;66.61;101477.84;5028054;28;20030;-48
2023/07/19 05:13:51;;;;;;;5.20;2.50;;;;;;;21.72;68.07;101479.19;5029194;28;20026;-46
2023/07/19 05:16:17;;;;;;;6.90;2.70;;;;;;;22.11;66.91;101482.72;5030554;28;20451;-47
2023/07/19 05:18:42;;;;;;;5.82;2.65;;;;;;;21.82;67.17;101480.72;5031386;28;20515;-43
2023/07/19 05:21:07;;;;;;;6.13;2.60;;;;;;;22.17;66.45;101479.91;5029248;28;20033;-43
2023/07/19 05:23:33;;;;;;;4.40;2.40;;;;;;;22.38;66.21;101476.72;5031431;28;20148;-51
2023/07/19 05:25:58;;;;;;;4.93;2.20;;;;;;;22.73;65.46;101475.81;5031100;28;20038;-45
2023/07/19 05:28:24;;;;;;;3.65;2.30;;;;;;;22.90;65.34;101473.56;5030819;28;20052;-43
2023/07/19 05:30:49;;;;;;;4.65;2.40;;;;;;;22.91;64.89;101470.00;5030387;28;20087;-46
2023/07/19 05:33:15;;;;;;;4.53;2.50;;;;;;;23.04;64.58;101466.06;5029130;28;20045;-43
2023/07/19 05:35:40;;;;;;;5.72;2.33;;;;;;;23.22;63.72;101469.09;5029838;28;20060;-47
2023/07/19 05:38:06;;;;;;;4.57;2.42;;;;;;;23.49;63.40;101465.63;5029272;28;20053;-50
2023/07/19 05:40:31;;;;;;;3.60;2.40;;;;;;;23.52;63.15;101468.22;5032294;28;20041;-44
2023/07/19 05:42:57;;;;;;;4.40;2.50;;;;;;;23.55;62.43;101467.22;5032781;28;20553;-47
2023/07/19 05:45:22;;;;;;;4.85;2.50;;;;;;;23.92;60.98;101459.81;5032086;28;20403;-50
2023/07/19 05:47:48;;;;;;;3.95;2.20;;;;;;;24.14;59.85;101457.34;5032228;28;20690;-49
2023/07/19 05:50:14;;;;;;;5.95;2.85;;;;;;;23.99;60.78;101461.38;5031287;28;20034;-46
2023/07/19 05:52:39;;;;;;;5.18;2.65;;;;;;;24.00;60.92;101457.78;5032226;28;20111;-46
2023/07/19 05:55:06;;;;;;;5.82;2.50;;;;;;;24.23;60.92;101459.72;5033950;28;20491;-47
2023/07/19 05:57:31;;;;;;;3.95;2.35;;;;;;;24.82;55.94;101459.44;5033824;28;20491;-47
2023/07/19 06:00:06;;;;;;;4.93;2.55;;;;;;;24.83;54.06;101459.34;5033750;28;20056;-49
2023/07/19 06:02:32;;;;;;;4.70;2.30;;;;;;;25.12;53.72;101460.13;5033309;28;20033;-44
2023/07/19 06:04:57;;;;;;;5.72;2.40;;;;;;;25.49;51.31;101462.28;5033762;28;20045;-46
2023/07/19 06:07:23;;;;;;;6.35;2.35;;;;;;;26.21;48.92;101459.31;5031392;28;20125;-51
2023/07/19 06:09:49;;;;;;;8.35;2.60;;;;;;;27.01;46.77;101459.44;5031212;28;20044;-48
2023/07/19 06:12:14;;;;;;;6.30;2.40;;;;;;;27.61;45.87;101458.41;5031620;28;20037;-48
2023/07/19 06:14:39;;;;;;;5.95;2.40;;;;;;;26.09;46.30;101462.50;5031997;28;20550;-48
2023/07/19 06:17:05;;;;;;;7.03;2.60;;;;;;;26.80;45.57;101453.19;5032210;28;20033;-45
2023/07/19 06:19:31;;;;;;;7.53;2.28;;;;;;;27.98;42.61;101453.91;5031332;28;20377;-46
2023/07/19 06:21:56;;;;;;;5.00;2.40;;;;;;;28.06;41.49;101449.88;5031548;28;20087;-48
2023/07/19 06:24:22;;;;;;;5.25;2.20;;;;;;;28.25;42.49;101449.84;5031692;28;20057;-51
2023/07/19 06:26:47;;;;;;;7.85;2.10;;;;;;;27.01;45.08;101446.03;5030297;28;20037;-46
2023/07/19 06:29:13;;;;;;;5.13;2.30;;;;;;;26.56;45.37;101451.59;5031045;28;20045;-46
2023/07/19 06:31:38;;;;;;;6.25;2.30;;;;;;;26.50;45.84;101452.75;5031053;28;20033;-45
2023/07/19 06:34:04;;;;;;;5.45;2.28;;;;;;;25.94;48.37;101457.78;5031412;28;20116;-45
2023/07/19 06:36:29;;;;;;;4.10;2.30;;;;;;;25.97;49.96;101463.00;5031284;28;20192;-44
2023/07/19 06:38:54;;;;;;;5.47;2.15;;;;;;;27.66;43.10;101452.81;5033888;28;20053;-52
2023/07/19 06:41:20;;;;;;;5.30;2.55;;;;;;;26.92;45.78;101452.66;5032795;28;20037;-52
2023/07/19 06:43:45;;;;;;;5.65;2.40;;;;;;;27.51;45.07;101454.41;5030263;28;20036;-46
2023/07/19 06:46:10;;;;;;;6.03;2.40;;;;;;;28.12;44.44;101454.94;5030591;28;20025;-43
2023/07/19 06:48:36;;;;;;;6.60;2.30;;;;;;;29.22;41.04;101462.59;5030796;28;20120;-44
2023/07/19 06:51:02;;;;;;;8.20;2.70;;;;;;;28.91;41.97;101458.06;5030365;28;20065;-48
2023/07/19 06:53:28;;;;;;;5.65;2.30;;;;;;;28.42;41.96;101462.44;5027219;28;20491;-45
2023/07/19 06:55:58;;;;;;;6.53;2.70;;;;;;;28.14;42.92;101458.44;4993530;28;20034;-44
2023/07/19 06:58:23;;;;;;;6.55;2.50;;;;;;;31.00;38.18;101464.66;5006254;28;20164;-46
2023/07/19 07:00:49;;;;;;;6.50;2.45;;;;;;;30.10;37.21;101466.56;5012091;28;20431;-47
2023/07/19 07:03:14;;;;;;;6.68;2.40;;;;;;;27.52;44.06;101461.50;4889403;28;25704;-50
2023/07/19 07:05:44;;;;;;;7.07;2.30;;;;;;;25.57;48.87;101478.88;4869198;28;20041;-52
2023/07/19 07:08:09;;;;;;;7.22;2.50;;;;;;;24.89;51.01;101479.63;4868615;28;22162;-56
2023/07/19 07:10:35;;;;;;;7.03;2.70;;;;;;;24.89;51.91;101477.84;4899258;28;20172;-45
2023/07/19 07:13:00;;;;;;;4.65;2.30;;;;;;;25.60;52.32;101476.09;5029451;28;20124;-46
2023/07/19 07:15:25;;;;;;;4.72;2.20;;;;;;;25.73;48.17;101474.69;5029171;28;20124;-47
2023/07/19 07:17:51;;;;;;;7.00;2.45;;;;;;;25.68;50.08;101477.50;5030715;28;20030;-47
2023/07/19 07:20:17;;;;;;;4.30;2.03;;;;;;;25.90;48.97;101471.31;5029755;28;20072;-46
2023/07/19 07:22:42;;;;;;;5.50;2.10;;;;;;;25.94;48.49;101483.63;5030781;28;20124;-51
2023/07/19 07:25:08;;;;;;;5.63;2.17;;;;;;;25.60;49.59;101478.78;5030242;28;20121;-48
2023/07/19 07:27:34;;;;;;;5.45;2.00;;;;;;;27.27;45.96;101467.09;5029619;28;20116;-46
2023/07/19 07:29:59;;;;;;;5.28;2.20;;;;;;;27.91;43.70;101472.09;5030199;28;20556;-47
2023/07/19 07:32:25;;;;;;;7.75;2.10;;;;;;;28.46;41.14;101461.31;5028762;28;20041;-51
2023/07/19 07:34:50;;;;;;;4.30;2.05;;;;;;;28.64;40.94;101468.41;5030480;28;20087;-43
2023/07/19 07:37:15;;;;;;;6.63;2.17;;;;;;;28.32;40.85;101471.88;5029691;28;20037;-45
2023/07/19 07:39:41;;;;;;;4.35;2.10;;;;;;;27.10;43.89;101467.03;5029550;28;20041;-47
2023/07/19 07:42:06;;;;;;;6.20;2.33;;;;;;;26.76;45.44;101470.31;5029456;28;20116;-51
2023/07/19 07:44:32;;;;;;;7.10;2.20;;;;;;;26.31;45.71;101473.19;5029981;28;20037;-44
2023/07/19 07:46:57;;;;;;;8.70;2.60;;;;;;;25.85;47.03;101474.19;5030020;28;20040;-47
2023/07/19 07:49:23;;;;;;;6.57;2.60;;;;;;;25.24;48.83;101476.56;5029422;28;20064;-43
2023/07/19 07:51:48;;;;;;;7.07;2.70;;;;;;;25.18;49.45;101473.25;5029811;28;20466;-47
2023/07/19 07:54:14;;;;;;;7.20;2.50;;;;;;;25.10;48.94;101473.53;5029783;28;20060;-46
2023/07/19 07:56:39;;;;;;;7.80;2.60;;;;;;;24.75;51.45;101471.25;5029952;28;20044;-46
2023/07/19 07:59:04;;;;;;;5.78;2.55;;;;;;;24.62;53.01;101476.16;5027647;28;20435;-51
2023/07/19 08:01:30;;;;;;;7.25;3.00;;;;;;;24.48;52.94;101465.09;5028235;28;20049;-46
2023/07/19 08:03:55;;;;;;;8.05;2.80;;;;;;;24.77;53.27;101464.91;5029779;28;20408;-48
2023/07/19 08:06:20;;;;;;;6.85;2.97;;;;;;;25.30;51.37;101467.44;5029337;28;20112;-49
2023/07/19 08:08:46;;;;;;;4.53;2.47;;;;;;;25.31;50.25;101463.84;5029568;28;20121;-45
2023/07/19 08:11:11;;;;;;;4.82;2.40;;;;;;;25.38;48.51;101458.19;5028677;28;20029;-43
2023/07/19 08:13:37;;;;;;;6.28;2.53;;;;;;;25.68;49.34;101450.81;5029307;28;20033;-47
2023/07/19 08:16:06;;;;;;;5.80;2.47;;;;;;;25.69;48.98;101457.03;5029638;28;20043;-43
2023/07/19 08:18:31;;;;;;;6.75;2.70;;;;;;;25.63;49.14;101458.13;5028877;28;20492;-47
2023/07/19 08:20:56;;;;;;;6.70;2.40;;;;;;;25.75;49.80;101456.78;5028827;28;20113;-46
2023/07/19 08:23:22;;;;;;;5.35;2.53;;;;;;;25.96;48.76;101460.38;5028842;28;20073;-47
2023/07/19 08:25:54;;;;;;;9.07;2.70;;;;;;;25.73;48.82;101451.53;5029758;28;20033;-46
2023/07/19 08:28:19;;;;;;;8.43;2.63;;;;;;;25.82;49.13;101455.59;5029516;28;20053;-49
2023/07/19 08:30:45;;;;;;;9.00;2.85;;;;;;;25.89;48.33;101450.88;5029597;28;20029;-43
2023/07/19 08:33:10;;;;;;;7.88;2.70;;;;;;;25.10;50.09;101452.19;5028754;28;20033;-48
2023/07/19 08:35:36;;;;;;;7.53;2.78;;;;;;;25.33;49.38;101459.31;5029539;28;20028;-46
2023/07/19 08:38:01;;;;;;;11.10;3.30;;;;;;;25.80;47.77;101463.66;5029245;28;20033;-46
2023/07/19 08:40:30;;;;;;;5.32;2.60;;;;;;;26.30;47.63;101454.53;5028451;28;20026;-48
2023/07/19 08:42:56;;;;;;;7.18;2.83;;;;;;;26.17;47.77;101455.00;5029489;28;20065;-45
2023/07/19 08:45:23;;;;;;;5.55;2.50;;;;;;;25.52;48.92;101457.66;5029335;28;20156;-47
2023/07/19 08:47:50;;;;;;;7.40;2.60;;;;;;;25.90;47.96;101457.97;5030057;28;20488;-44
2023/07/19 08:50:16;;;;;;;8.40;2.90;;;;;;;25.71;48.70;101457.84;5028953;28;20037;-46
2023/07/19 08:52:42;;;;;;;6.53;2.80;;;;;;;25.51;48.96;101455.03;5029957;28;20393;-50
2023/07/19 08:55:08;;;;;;;6.53;2.58;;;;;;;25.82;47.92;101461.81;5028899;28;20033;-48
2023/07/19 08:57:38;;;;;;;6.18;2.83;;;;;;;25.21;49.51;101457.09;5029379;28;20044;-51
2023/07/19 09:00:04;;;;;;;8.00;3.20;;;;;;;24.82;50.48;101460.31;5026794;28;20078;-46
2023/07/19 09:02:30;;;;;;;9.68;3.05;;;;;;;24.42;52.41;101467.97;5027592;28;20049;-50
2023/07/19 09:05:09;;;;;;;6.25;2.85;;;;;;;24.51;53.40;101470.31;5029222;28;20030;-52
2023/07/19 09:07:36;;;;;;;7.32;2.90;;;;;;;24.76;52.54;101465.00;5028941;28;20082;-46
2023/07/19 09:10:02;;;;;;;6.68;3.05;;;;;;;24.75;53.16;101465.91;5029034;28;20496;-47
2023/07/19 09:12:41;;;;;;;9.73;3.30;;;;;;;25.35;52.60;101462.78;5028813;28;20029;-50
2023/07/19 09:15:08;;;;;;;6.60;2.80;;;;;;;24.88;52.44;101464.56;5032165;28;20056;-47
2023/07/19 09:17:41;;;;;;;9.18;3.08;;;;;;;25.25;52.01;101467.59;5032581;28;20036;-46
2023/07/19 09:20:07;;;;;;;6.40;3.05;;;;;;;25.26;51.25;101471.13;5032129;28;20445;-45
2023/07/19 09:22:37;;;;;;;8.68;3.22;;;;;;;25.34;51.21;101474.41;5034763;28;20045;-46
2023/07/19 09:25:05;;;;;;;5.93;3.08;;;;;;;24.90;52.69;101473.38;5035241;28;20038;-45
2023/07/19 09:27:31;;;;;;;5.72;2.80;;;;;;;24.73;52.89;101473.97;5032655;28;20069;-52
2023/07/19 09:29:56;;;;;;;6.70;3.20;;;;;;;24.63;52.77;101483.22;5034794;28;20506;-45
2023/07/19 09:32:23;;;;;;;7.35;3.00;;;;;;;24.41;52.43;101482.19;5034547;28;20487;-45
2023/07/19 09:34:52;;;;;;;7.07;3.25;;;;;;;24.30;52.75;101484.38;5034975;28;20079;-50
2023/07/19 09:37:20;;;;;;;9.07;3.45;;;;;;;24.33;52.62;101487.81;5032989;28;20095;-44
2023/07/19 09:39:46;;;;;;;5.88;3.10;;;;;;;24.44;52.69;101487.44;5033443;28;20025;-48
2023/07/19 09:42:13;;;;;;;6.25;3.00;;;;;;;25.19;51.08;101480.34;5032602;28;20128;-46
2023/07/19 09:44:39;;;;;;;6.00;3.20;;;;;;;25.07;50.91;101478.13;5032634;28;20108;-44
2023/07/19 09:47:08;;;;;;;8.70;3.10;;;;;;;25.67;50.07;101481.16;5032379;28;20031;-45
2023/07/19 09:49:36;;;;;;;8.50;3.55;;;;;;;25.43;50.34;101479.41;5030890;28;20044;-45
2023/07/19 09:52:03;;;;;;;6.43;2.80;;;;;;;25.39;49.19;101488.44;5032009;28;20052;-49
2023/07/19 09:54:31;;;;;;;8.13;3.00;;;;;;;24.62;50.25;101481.47;5031674;28;20095;-44
2023/07/19 09:56:56;;;;;;;7.10;2.60;;;;;;;25.97;48.13;101488.84;5032339;28;20057;-45
2023/07/19 09:59:44;;;;;;;22.25;3.65;;;;;;;26.45;45.75;101483.28;5030956;28;20067;-47
2023/07/19 10:02:13;;;;;;;6.30;2.53;;;;;;;25.69;47.62;101486.41;5030201;28;20033;-48
2023/07/19 10:04:39;;;;;;;6.30;2.60;;;;;;;25.82;47.31;101487.66;5031808;28;20767;-49
2023/07/19 10:07:19;;;;;;;4.45;2.20;;;;;;;26.15;46.07;101485.44;5031847;28;20083;-47
2023/07/19 10:09:46;;;;;;;5.43;2.33;;;;;;;25.13;48.15;101483.22;5031289;28;20056;-49
2023/07/19 10:12:17;;;;;;;4.82;1.90;;;;;;;25.21;46.84;101489.13;5031332;28;20029;-46
2023/07/19 10:14:52;;;;;;;7.10;2.20;;;;;;;25.09;46.86;101486.91;5031963;28;20044;-48
2023/07/19 10:17:17;;;;;;;5.20;1.80;;;;;;;26.01;44.13;101487.78;5031438;28;20041;-46
2023/07/19 10:20:08;;;;;;;5.63;2.00;;;;;;;25.94;44.45;101486.28;5031413;28;20033;-51
2023/07/19 10:22:53;;;;;;;4.47;2.10;;;;;;;25.38;45.48;101486.69;5031197;28;20038;-46
2023/07/19 10:25:34;;;;;;;5.00;2.00;;;;;;;25.31;46.91;101490.53;5030850;28;20037;-49
2023/07/19 10:28:02;;;;;;;5.00;1.90;;;;;;;25.07;46.95;101478.13;5031121;28;20128;-50
2023/07/19 10:30:47;;;;;;;5.90;2.40;;;;;;;25.39;46.99;101491.97;5030541;28;20065;-45
2023/07/19 10:33:25;;;;;;;7.07;2.25;;;;;;;26.04;44.24;101483.19;5030954;28;20026;-44
2023/07/19 10:35:55;;;;;;;9.43;2.25;;;;;;;25.45;45.84;101485.53;5031480;28;20033;-42
2023/07/19 10:38:24;;;;;;;6.57;2.17;;;;;;;25.21;46.94;101484.66;5030707;28;20103;-44
2023/07/19 10:40:54;;;;;;;8.27;2.30;;;;;;;25.49;46.50;101489.84;5030606;28;20264;-47
2023/07/19 10:43:20;;;;;;;5.63;2.00;;;;;;;26.20;43.47;101488.78;5030867;28;20048;-46
2023/07/19 10:45:45;;;;;;;3.95;1.92;;;;;;;26.35;44.67;101488.13;5031184;28;20022;-47
2023/07/19 10:48:11;;;;;;;4.22;2.05;;;;;;;25.86;45.85;101491.94;5030707;28;20079;-47
2023/07/19 10:50:38;;;;;;;7.80;2.00;;;;;;;25.48;45.48;101482.75;5030792;28;20087;-47
2023/07/19 10:53:04;;;;;;;5.32;2.00;;;;;;;26.16;44.09;101485.38;5031024;28;20045;-46
2023/07/19 10:55:30;;;;;;;4.38;2.05;;;;;;;25.71;44.63;101493.44;5031085;28;20131;-46
2023/07/19 10:57:55;;;;;;;4.75;1.92;;;;;;;26.04;44.33;101495.69;5031153;28;20372;-45
2023/07/19 11:00:21;;;;;;;5.72;1.85;;;;;;;26.37;43.50;101488.97;5030119;28;20103;-46
2023/07/19 11:02:46;;;;;;;6.53;2.67;;;;;;;26.57;43.40;101488.13;5030882;28;20026;-50
2023/07/19 11:05:13;;;;;;;5.45;2.00;;;;;;;25.89;45.79;101507.84;5030807;28;20060;-45
2023/07/19 11:07:38;;;;;;;4.00;2.00;;;;;;;25.67;45.47;101498.97;5031112;28;20099;-45
2023/07/19 11:10:04;;;;;;;6.88;2.08;;;;;;;25.70;45.50;101491.69;5030136;28;20439;-46
2023/07/19 11:12:31;;;;;;;6.35;1.88;;;;;;;26.54;44.08;101489.09;5029272;28;20037;-44
2023/07/19 11:14:58;;;;;;;6.13;2.42;;;;;;;25.93;45.48;101498.78;5030540;28;20032;-41
2023/07/19 11:17:28;;;;;;;6.50;2.38;;;;;;;25.88;45.13;101497.22;5029906;28;20075;-46
2023/07/19 11:19:53;;;;;;;4.57;2.20;;;;;;;25.95;45.27;101502.28;5029986;28;20034;-50